sensor_id;sensor_type;location;lat;lon;timestamp;pressure;altitude;pressure_sealevel;temperature;humidity
78313;BME280;67568;47.438;21.408;2023-05-07T00:02:06;100588.00;;;15.26;95.18
78313;BME280;67568;47.438;21.408;2023-05-07T00:04:35;100599.97;;;15.26;95.88
78313;BME280;67568;47.438;21.408;2023-05-07T00:07:03;100589.13;;;15.16;95.75
78313;BME280;67568;47.438;21.408;2023-05-07T00:09:29;100588.66;;;15.23;95.54
78313;BME280;67568;47.438;21.408;2023-05-07T00:12:00;100583.38;;;15.21;95.79
78313;BME280;67568;47.438;21.408;2023-05-07T00:14:29;100578.16;;;15.20;94.96
78313;BME280;67568;47.438;21.408;2023-05-07T00:16:56;100585.19;;;15.17;94.99
78313;BME280;67568;47.438;21.408;2023-05-07T00:19:23;100586.84;;;15.18;95.29
78313;BME280;67568;47.438;21.408;2023-05-07T00:21:52;100590.94;;;15.12;95.12
78313;BME280;67568;47.438;21.408;2023-05-07T00:24:19;100589.13;;;15.16;95.12
78313;BME280;67568;47.438;21.408;2023-05-07T00:26:49;100593.72;;;15.12;94.41
78313;BME280;67568;47.438;21.408;2023-05-07T00:29:18;100590.78;;;15.09;94.92
78313;BME280;67568;47.438;21.408;2023-05-07T00:31:45;100590.94;;;15.12;95.55
78313;BME280;67568;47.438;21.408;2023-05-07T00:34:13;100588.66;;;15.14;95.03
78313;BME280;67568;47.438;21.408;2023-05-07T00:36:39;100585.84;;;15.14;95.45
78313;BME280;67568;47.438;21.408;2023-05-07T00:39:09;100584.34;;;15.17;94.29
78313;BME280;67568;47.438;21.408;2023-05-07T00:41:37;100589.31;;;15.20;94.20
78313;BME280;67568;47.438;21.408;2023-05-07T00:44:04;100585.00;;;15.22;95.17
78313;BME280;67568;47.438;21.408;2023-05-07T00:46:32;100582.06;;;15.27;94.76
78313;BME280;67568;47.438;21.408;2023-05-07T00:48:59;100572.06;;;15.26;94.41
78313;BME280;67568;47.438;21.408;2023-05-07T00:51:27;100578.16;;;15.28;93.49
78313;BME280;67568;47.438;21.408;2023-05-07T00:53:54;100584.69;;;15.33;93.54
78313;BME280;67568;47.438;21.408;2023-05-07T00:56:21;100577.50;;;15.32;92.85
78313;BME280;67568;47.438;21.408;2023-05-07T00:58:49;100585.88;;;15.32;92.46
78313;BME280;67568;47.438;21.408;2023-05-07T01:01:15;100580.59;;;15.30;92.18
78313;BME280;67568;47.438;21.408;2023-05-07T01:03:42;100581.25;;;15.27;92.40
78313;BME280;67568;47.438;21.408;2023-05-07T01:06:10;100586.53;;;15.28;91.02
78313;BME280;67568;47.438;21.408;2023-05-07T01:08:39;100585.69;;;15.28;91.56
78313;BME280;67568;47.438;21.408;2023-05-07T01:11:07;100584.53;;;15.29;91.49
78313;BME280;67568;47.438;21.408;2023-05-07T01:13:36;100580.94;;;15.28;91.65
78313;BME280;67568;47.438;21.408;2023-05-07T01:16:06;100579.94;;;15.24;90.61
78313;BME280;67568;47.438;21.408;2023-05-07T01:18:34;100580.59;;;15.21;91.53
78313;BME280;67568;47.438;21.408;2023-05-07T01:21:04;100583.88;;;15.23;91.21
78313;BME280;67568;47.438;21.408;2023-05-07T01:23:31;100570.25;;;15.22;90.92
78313;BME280;67568;47.438;21.408;2023-05-07T01:26:00;100572.72;;;15.23;90.87
78313;BME280;67568;47.438;21.408;2023-05-07T01:28:26;100581.59;;;15.25;90.96
78313;BME280;67568;47.438;21.408;2023-05-07T01:30:57;100575.00;;;15.21;90.74
78313;BME280;67568;47.438;21.408;2023-05-07T01:33:29;100578.47;;;15.10;92.33
78313;BME280;67568;47.438;21.408;2023-05-07T01:35:58;100576.63;;;15.14;90.56
78313;BME280;67568;47.438;21.408;2023-05-07T01:38:26;100574.50;;;15.19;90.35
78313;BME280;67568;47.438;21.408;2023-05-07T01:40:54;100573.38;;;15.20;90.36
78313;BME280;67568;47.438;21.408;2023-05-07T01:43:21;100572.06;;;15.26;90.52
78313;BME280;67568;47.438;21.408;2023-05-07T01:45:49;100566.78;;;15.25;89.56
78313;BME280;67568;47.438;21.408;2023-05-07T01:48:16;100571.56;;;15.24;88.81
78313;BME280;67568;47.438;21.408;2023-05-07T01:50:44;100575.16;;;15.25;89.45
78313;BME280;67568;47.438;21.408;2023-05-07T01:53:13;100574.50;;;15.28;89.82
78313;BME280;67568;47.438;21.408;2023-05-07T01:55:49;100573.84;;;15.31;88.74
78313;BME280;67568;47.438;21.408;2023-05-07T01:58:16;100574.03;;;15.35;89.24
78313;BME280;67568;47.438;21.408;2023-05-07T02:00:43;100584.03;;;15.36;89.00
78313;BME280;67568;47.438;21.408;2023-05-07T02:03:09;100585.03;;;15.40;88.09
78313;BME280;67568;47.438;21.408;2023-05-07T02:05:36;100577.78;;;15.39;89.46
78313;BME280;67568;47.438;21.408;2023-05-07T02:08:06;100582.25;;;15.40;88.59
78313;BME280;67568;47.438;21.408;2023-05-07T02:10:33;100580.59;;;15.39;87.61
78313;BME280;67568;47.438;21.408;2023-05-07T02:13:00;100585.50;;;15.42;88.57
78313;BME280;67568;47.438;21.408;2023-05-07T02:15:27;100575.81;;;15.39;88.48
78313;BME280;67568;47.438;21.408;2023-05-07T02:20:26;100581.75;;;15.38;89.19
78313;BME280;67568;47.438;21.408;2023-05-07T02:22:53;100579.63;;;15.35;88.04
78313;BME280;67568;47.438;21.408;2023-05-07T02:25:19;100578.47;;;15.36;88.81
78313;BME280;67568;47.438;21.408;2023-05-07T02:27:46;100577.28;;;15.37;87.96
78313;BME280;67568;47.438;21.408;2023-05-07T02:30:16;100572.38;;;15.34;88.30
78313;BME280;67568;47.438;21.408;2023-05-07T02:32:43;100567.44;;;15.30;87.92
78313;BME280;67568;47.438;21.408;2023-05-07T02:35:12;100566.31;;;15.32;87.90
78313;BME280;67568;47.438;21.408;2023-05-07T02:37:39;100572.22;;;15.30;88.31
78313;BME280;67568;47.438;21.408;2023-05-07T02:40:06;100576.47;;;15.27;87.99
78313;BME280;67568;47.438;21.408;2023-05-07T02:42:33;100576.00;;;15.25;87.36
78313;BME280;67568;47.438;21.408;2023-05-07T02:45:00;100581.09;;;15.23;87.24
78313;BME280;67568;47.438;21.408;2023-05-07T02:47:29;100578.81;;;15.25;87.32
78313;BME280;67568;47.438;21.408;2023-05-07T02:49:56;100583.72;;;15.28;86.97
78313;BME280;67568;47.438;21.408;2023-05-07T02:52:23;100578.81;;;15.25;86.62
78313;BME280;67568;47.438;21.408;2023-05-07T02:54:49;100587.19;;;15.25;86.52
78313;BME280;67568;47.438;21.408;2023-05-07T02:57:16;100590.44;;;15.27;87.10
78313;BME280;67568;47.438;21.408;2023-05-07T02:59:43;100592.09;;;15.28;87.15
78313;BME280;67568;47.438;21.408;2023-05-07T03:02:10;100592.09;;;15.28;85.84
78313;BME280;67568;47.438;21.408;2023-05-07T03:04:36;100585.50;;;15.24;86.33
78313;BME280;67568;47.438;21.408;2023-05-07T03:07:04;100594.41;;;15.26;87.22
78313;BME280;67568;47.438;21.408;2023-05-07T03:09:30;100598.34;;;15.25;87.20
78313;BME280;67568;47.438;21.408;2023-05-07T03:11:57;100593.91;;;15.24;86.51
78313;BME280;67568;47.438;21.408;2023-05-07T03:14:27;100605.06;;;15.24;85.95
78313;BME280;67568;47.438;21.408;2023-05-07T03:16:53;100609.50;;;15.25;85.76
78313;BME280;67568;47.438;21.408;2023-05-07T03:19:20;100611.81;;;15.23;86.29
78313;BME280;67568;47.438;21.408;2023-05-07T03:21:47;100609.31;;;15.22;86.22
78313;BME280;67568;47.438;21.408;2023-05-07T03:24:13;100618.03;;;15.20;86.47
78313;BME280;67568;47.438;21.408;2023-05-07T03:26:40;100616.38;;;15.19;86.25
78313;BME280;67568;47.438;21.408;2023-05-07T03:29:07;100625.91;;;15.18;86.49
78313;BME280;67568;47.438;21.408;2023-05-07T03:31:35;100622.63;;;15.16;86.60
78313;BME280;67568;47.438;21.408;2023-05-07T03:34:04;100624.94;;;15.14;85.40
78313;BME280;67568;47.438;21.408;2023-05-07T03:36:33;100616.56;;;15.14;85.78
78313;BME280;67568;47.438;21.408;2023-05-07T03:39:03;100623.63;;;15.12;85.56
78313;BME280;67568;47.438;21.408;2023-05-07T03:41:32;100622.59;;;15.07;86.07
78313;BME280;67568;47.438;21.408;2023-05-07T03:43:59;100631.66;;;15.13;86.63
78313;BME280;67568;47.438;21.408;2023-05-07T03:46:26;100624.44;;;15.12;86.24
78313;BME280;67568;47.438;21.408;2023-05-07T03:48:53;100630.50;;;15.14;86.80
78313;BME280;67568;47.438;21.408;2023-05-07T03:51:20;100644.13;;;15.16;87.11
78313;BME280;67568;47.438;21.408;2023-05-07T03:53:46;100647.25;;;15.14;86.72
78313;BME280;67568;47.438;21.408;2023-05-07T03:56:13;100637.38;;;15.17;87.14
78313;BME280;67568;47.438;21.408;2023-05-07T03:58:40;100632.66;;;15.17;86.49
78313;BME280;67568;47.438;21.408;2023-05-07T04:01:08;100636.25;;;15.18;87.31
78313;BME280;67568;47.438;21.408;2023-05-07T04:03:35;100643.16;;;15.20;87.24
78313;BME280;67568;47.438;21.408;2023-05-07T04:06:05;100641.19;;;15.21;86.55
78313;BME280;67568;47.438;21.408;2023-05-07T04:08:32;100645.97;;;15.20;86.46
78313;BME280;67568;47.438;21.408;2023-05-07T04:10:59;100653.16;;;15.21;87.26
78313;BME280;67568;47.438;21.408;2023-05-07T04:13:26;100649.72;;;15.24;86.93
78313;BME280;67568;47.438;21.408;2023-05-07T04:15:55;100655.00;;;15.26;86.69
78313;BME280;67568;47.438;21.408;2023-05-07T04:18:21;100653.84;;;15.27;86.83
78313;BME280;67568;47.438;21.408;2023-05-07T04:20:48;100660.25;;;15.27;86.81
78313;BME280;67568;47.438;21.408;2023-05-07T04:23:15;100655.16;;;15.29;86.08
78313;BME280;67568;47.438;21.408;2023-05-07T04:25:43;100652.88;;;15.32;87.33
78313;BME280;67568;47.438;21.408;2023-05-07T04:28:09;100648.91;;;15.33;86.74
78313;BME280;67568;47.438;21.408;2023-05-07T04:30:36;100656.97;;;15.34;86.39
78313;BME280;67568;47.438;21.408;2023-05-07T04:33:03;100657.28;;;15.33;86.99
78313;BME280;67568;47.438;21.408;2023-05-07T04:35:30;100657.28;;;15.33;86.95
78313;BME280;67568;47.438;21.408;2023-05-07T04:37:56;100668.47;;;15.33;86.97
78313;BME280;67568;47.438;21.408;2023-05-07T04:40:23;100666.47;;;15.33;86.64
78313;BME280;67568;47.438;21.408;2023-05-07T04:42:50;100667.50;;;15.37;85.71
78313;BME280;67568;47.438;21.408;2023-05-07T04:45:17;100668.31;;;15.38;86.60
78313;BME280;67568;47.438;21.408;2023-05-07T04:47:43;100667.81;;;15.36;86.94
78313;BME280;67568;47.438;21.408;2023-05-07T04:50:10;100664.34;;;15.39;85.69
78313;BME280;67568;47.438;21.408;2023-05-07T04:52:37;100665.38;;;15.43;86.22
78313;BME280;67568;47.438;21.408;2023-05-07T04:55:04;100666.34;;;15.47;85.49
78313;BME280;67568;47.438;21.408;2023-05-07T04:57:31;100666.34;;;15.47;86.59
78313;BME280;67568;47.438;21.408;2023-05-07T04:59:58;100658.47;;;15.49;86.25
78313;BME280;67568;47.438;21.408;2023-05-07T05:02:24;100667.66;;;15.58;85.95
78313;BME280;67568;47.438;21.408;2023-05-07T05:04:54;100660.25;;;15.62;85.30
78313;BME280;67568;47.438;21.408;2023-05-07T05:07:21;100658.47;;;15.66;85.21
78313;BME280;67568;47.438;21.408;2023-05-07T05:09:50;100665.41;;;15.78;84.86
78313;BME280;67568;47.438;21.408;2023-05-07T05:12:17;100665.38;;;15.86;84.43
78313;BME280;67568;47.438;21.408;2023-05-07T05:14:44;100657.50;;;15.97;83.65
78313;BME280;67568;47.438;21.408;2023-05-07T05:17:10;100670.63;;;16.05;83.03
78313;BME280;67568;47.438;21.408;2023-05-07T05:19:37;100669.97;;;16.08;81.36
78313;BME280;67568;47.438;21.408;2023-05-07T05:22:08;100671.75;;;16.13;80.47
78313;BME280;67568;47.438;21.408;2023-05-07T05:24:36;100668.78;;;16.18;78.69
78313;BME280;67568;47.438;21.408;2023-05-07T05:27:02;100677.81;;;16.24;78.16
78313;BME280;67568;47.438;21.408;2023-05-07T05:29:29;100677.00;;;16.23;77.32
78313;BME280;67568;47.438;21.408;2023-05-07T05:31:56;100672.56;;;16.31;77.76
78313;BME280;67568;47.438;21.408;2023-05-07T05:34:24;100670.41;;;16.36;77.94
78313;BME280;67568;47.438;21.408;2023-05-07T05:36:51;100680.03;;;16.48;76.90
78313;BME280;67568;47.438;21.408;2023-05-07T05:39:18;100683.88;;;16.43;77.38
78313;BME280;67568;47.438;21.408;2023-05-07T05:41:45;100682.06;;;16.30;76.50
78313;BME280;67568;47.438;21.408;2023-05-07T05:44:13;100691.81;;;16.24;77.59
78313;BME280;67568;47.438;21.408;2023-05-07T05:46:45;100692.78;;;16.19;76.56
78313;BME280;67568;47.438;21.408;2023-05-07T05:49:11;100693.97;;;16.09;76.61
78313;BME280;67568;47.438;21.408;2023-05-07T05:51:38;100690.00;;;16.10;77.32
78313;BME280;67568;47.438;21.408;2023-05-07T05:54:05;100695.13;;;16.08;78.63
78313;BME280;67568;47.438;21.408;2023-05-07T05:56:31;100696.59;;;16.06;78.28
78313;BME280;67568;47.438;21.408;2023-05-07T05:59:01;100712.06;;;16.03;78.25
78313;BME280;67568;47.438;21.408;2023-05-07T06:01:28;100736.88;;;16.05;78.86
78313;BME280;67568;47.438;21.408;2023-05-07T06:03:56;100751.34;;;15.98;78.40
78313;BME280;67568;47.438;21.408;2023-05-07T06:06:22;100752.53;;;15.97;78.35
78313;BME280;67568;47.438;21.408;2023-05-07T06:08:49;100744.28;;;15.92;79.23
78313;BME280;67568;47.438;21.408;2023-05-07T06:11:16;100741.00;;;15.90;78.41
78313;BME280;67568;47.438;21.408;2023-05-07T06:13:43;100740.03;;;15.86;79.18
78313;BME280;67568;47.438;21.408;2023-05-07T06:16:12;100736.56;;;15.80;80.08
78313;BME280;67568;47.438;21.408;2023-05-07T06:18:38;100739.50;;;15.84;79.78
78313;BME280;67568;47.438;21.408;2023-05-07T06:21:05;100734.91;;;15.79;80.13
78313;BME280;67568;47.438;21.408;2023-05-07T06:23:42;100734.72;;;15.67;83.48
78313;BME280;67568;47.438;21.408;2023-05-07T06:26:08;100736.06;;;15.69;82.98
78313;BME280;67568;47.438;21.408;2023-05-07T06:28:35;100728.84;;;15.68;82.38
78313;BME280;67568;47.438;21.408;2023-05-07T06:31:15;100731.91;;;15.67;82.27
78313;BME280;67568;47.438;21.408;2023-05-07T06:33:44;100737.63;;;15.53;85.31
78313;BME280;67568;47.438;21.408;2023-05-07T06:36:13;100743.56;;;15.51;84.81
78313;BME280;67568;47.438;21.408;2023-05-07T06:38:40;100739.59;;;15.44;86.29
78313;BME280;67568;47.438;21.408;2023-05-07T06:41:07;100734.00;;;15.35;86.29
78313;BME280;67568;47.438;21.408;2023-05-07T06:43:36;100742.88;;;15.28;86.44
78313;BME280;67568;47.438;21.408;2023-05-07T06:46:03;100732.69;;;15.33;86.05
78313;BME280;67568;47.438;21.408;2023-05-07T06:48:30;100725.94;;;15.34;86.04
78313;BME280;67568;47.438;21.408;2023-05-07T06:50:57;100724.00;;;15.34;86.79
78313;BME280;67568;47.438;21.408;2023-05-07T06:53:24;100720.84;;;15.36;86.44
78313;BME280;67568;47.438;21.408;2023-05-07T06:55:50;100718.41;;;15.34;87.23
78313;BME280;67568;47.438;21.408;2023-05-07T06:58:17;100714.94;;;15.28;87.27
78313;BME280;67568;47.438;21.408;2023-05-07T07:00:44;100723.34;;;15.37;87.64
78313;BME280;67568;47.438;21.408;2023-05-07T07:03:11;100719.22;;;15.35;86.45
78313;BME280;67568;47.438;21.408;2023-05-07T07:05:38;100725.47;;;15.32;87.14
78313;BME280;67568;47.438;21.408;2023-05-07T07:08:04;100723.00;;;15.39;87.61
78313;BME280;67568;47.438;21.408;2023-05-07T07:10:31;100712.34;;;15.41;87.34
78313;BME280;67568;47.438;21.408;2023-05-07T07:12:58;100719.25;;;15.43;86.88
78313;BME280;67568;47.438;21.408;2023-05-07T07:15:26;100718.91;;;15.45;86.84
78313;BME280;67568;47.438;21.408;2023-05-07T07:17:54;100720.72;;;15.49;86.25
78313;BME280;67568;47.438;21.408;2023-05-07T07:20:24;100726.31;;;15.58;87.20
78313;BME280;67568;47.438;21.408;2023-05-07T07:22:50;100732.88;;;15.62;86.43
78313;BME280;67568;47.438;21.408;2023-05-07T07:25:17;100727.69;;;15.69;85.46
78313;BME280;67568;47.438;21.408;2023-05-07T07:27:46;100723.91;;;15.74;85.45
78313;BME280;67568;47.438;21.408;2023-05-07T07:30:13;100728.19;;;15.89;84.77
78313;BME280;67568;47.438;21.408;2023-05-07T07:32:40;100729.00;;;15.98;84.49
78313;BME280;67568;47.438;21.408;2023-05-07T07:35:07;100724.06;;;16.12;84.31
78313;BME280;67568;47.438;21.408;2023-05-07T07:37:37;100726.31;;;16.28;83.65
78313;BME280;67568;47.438;21.408;2023-05-07T07:40:07;100723.03;;;16.43;82.43
78313;BME280;67568;47.438;21.408;2023-05-07T07:42:34;100725.75;;;16.69;82.32
78313;BME280;67568;47.438;21.408;2023-05-07T07:45:02;100722.41;;;16.76;81.27
78313;BME280;67568;47.438;21.408;2023-05-07T07:47:29;100732.97;;;16.79;81.35
78313;BME280;67568;47.438;21.408;2023-05-07T07:49:56;100725.06;;;16.81;81.14
78313;BME280;67568;47.438;21.408;2023-05-07T07:52:22;100723.25;;;16.85;80.12
78313;BME280;67568;47.438;21.408;2023-05-07T07:54:49;100729.25;;;17.04;79.80
78313;BME280;67568;47.438;21.408;2023-05-07T07:57:16;100730.81;;;17.23;79.30
78313;BME280;67568;47.438;21.408;2023-05-07T07:59:42;100727.59;;;17.63;78.01
78313;BME280;67568;47.438;21.408;2023-05-07T08:02:09;100721.09;;;17.71;77.20
78313;BME280;67568;47.438;21.408;2023-05-07T08:04:36;100725.03;;;17.70;76.01
78313;BME280;67568;47.438;21.408;2023-05-07T08:07:03;100713.75;;;17.87;75.10
78313;BME280;67568;47.438;21.408;2023-05-07T08:09:35;100715.22;;;18.06;73.85
78313;BME280;67568;47.438;21.408;2023-05-07T08:12:02;100717.69;;;18.40;71.47
78313;BME280;67568;47.438;21.408;2023-05-07T08:14:28;100714.25;;;18.68;70.73
78313;BME280;67568;47.438;21.408;2023-05-07T08:16:55;100728.81;;;18.82;66.14
78313;BME280;67568;47.438;21.408;2023-05-07T08:19:22;100727.06;;;19.02;66.48
78313;BME280;67568;47.438;21.408;2023-05-07T08:21:49;100725.56;;;19.17;64.63
78313;BME280;67568;47.438;21.408;2023-05-07T08:24:16;100720.16;;;19.37;64.13
78313;BME280;67568;47.438;21.408;2023-05-07T08:26:44;100721.91;;;19.41;63.08
78313;BME280;67568;47.438;21.408;2023-05-07T08:29:14;100726.47;;;19.46;61.80
78313;BME280;67568;47.438;21.408;2023-05-07T08:31:40;100731.75;;;19.23;59.06
78313;BME280;67568;47.438;21.408;2023-05-07T08:34:07;100722.63;;;19.26;62.01
78313;BME280;67568;47.438;21.408;2023-05-07T08:36:35;100729.28;;;19.33;60.49
78313;BME280;67568;47.438;21.408;2023-05-07T08:39:02;100714.09;;;19.22;60.53
78313;BME280;67568;47.438;21.408;2023-05-07T08:41:29;100723.22;;;19.19;60.19
78313;BME280;67568;47.438;21.408;2023-05-07T08:43:58;100720.88;;;19.09;60.52
78313;BME280;67568;47.438;21.408;2023-05-07T08:46:25;100724.84;;;18.96;57.52
78313;BME280;67568;47.438;21.408;2023-05-07T08:48:55;100722.06;;;18.96;59.56
78313;BME280;67568;47.438;21.408;2023-05-07T08:51:22;100717.81;;;18.90;59.92
78313;BME280;67568;47.438;21.408;2023-05-07T08:53:49;100713.22;;;18.73;58.02
78313;BME280;67568;47.438;21.408;2023-05-07T08:56:17;100713.59;;;18.83;59.17
78313;BME280;67568;47.438;21.408;2023-05-07T08:58:45;100694.19;;;19.03;58.40
78313;BME280;67568;47.438;21.408;2023-05-07T09:01:16;100704.38;;;19.20;59.00
78313;BME280;67568;47.438;21.408;2023-05-07T09:03:46;100698.47;;;19.49;57.63
78313;BME280;67568;47.438;21.408;2023-05-07T09:06:14;100702.53;;;19.76;56.56
78313;BME280;67568;47.438;21.408;2023-05-07T09:08:48;100691.16;;;19.85;55.04
78313;BME280;67568;47.438;21.408;2023-05-07T09:11:15;100696.09;;;19.76;57.28
78313;BME280;67568;47.438;21.408;2023-05-07T09:13:42;100700.78;;;19.84;56.09
78313;BME280;67568;47.438;21.408;2023-05-07T09:16:10;100698.63;;;19.93;55.80
78313;BME280;67568;47.438;21.408;2023-05-07T09:18:44;100695.66;;;20.02;55.67
78313;BME280;67568;47.438;21.408;2023-05-07T09:21:15;100702.31;;;19.82;56.60
78313;BME280;67568;47.438;21.408;2023-05-07T09:23:42;100699.16;;;19.71;55.85
78313;BME280;67568;47.438;21.408;2023-05-07T09:26:09;100701.34;;;19.77;56.60
78313;BME280;67568;47.438;21.408;2023-05-07T09:28:40;100699.13;;;19.83;56.05
78313;BME280;67568;47.438;21.408;2023-05-07T09:31:08;100711.88;;;20.21;55.74
78313;BME280;67568;47.438;21.408;2023-05-07T09:33:34;100711.00;;;20.33;55.62
78313;BME280;67568;47.438;21.408;2023-05-07T09:36:05;100713.75;;;20.45;55.18
78313;BME280;67568;47.438;21.408;2023-05-07T09:38:37;100693.25;;;20.60;54.46
78313;BME280;67568;47.438;21.408;2023-05-07T09:43:35;100707.44;;;21.11;54.55
78313;BME280;67568;47.438;21.408;2023-05-07T09:46:25;100713.41;;;21.26;53.63
78313;BME280;67568;47.438;21.408;2023-05-07T09:48:57;100715.13;;;21.30;53.66
78313;BME280;67568;47.438;21.408;2023-05-07T09:53:52;100711.22;;;21.35;53.32
78313;BME280;67568;47.438;21.408;2023-05-07T09:56:22;100717.06;;;21.42;54.57
78313;BME280;67568;47.438;21.408;2023-05-07T09:58:49;100714.31;;;21.30;53.34
78313;BME280;67568;47.438;21.408;2023-05-07T10:01:25;100719.59;;;21.47;54.10
78313;BME280;67568;47.438;21.408;2023-05-07T10:03:53;100706.28;;;21.64;51.76
78313;BME280;67568;47.438;21.408;2023-05-07T10:06:22;100702.44;;;21.72;50.72
78313;BME280;67568;47.438;21.408;2023-05-07T10:08:50;100692.63;;;21.85;50.89
78313;BME280;67568;47.438;21.408;2023-05-07T10:11:18;100693.66;;;21.77;50.88
78313;BME280;67568;47.438;21.408;2023-05-07T10:13:46;100688.91;;;21.62;50.25
78313;BME280;67568;47.438;21.408;2023-05-07T10:16:13;100694.50;;;21.77;51.14
78313;BME280;67568;47.438;21.408;2023-05-07T10:18:42;100683.13;;;21.74;51.52
78313;BME280;67568;47.438;21.408;2023-05-07T10:21:22;100690.03;;;21.76;51.36
78313;BME280;67568;47.438;21.408;2023-05-07T10:23:51;100682.22;;;21.70;50.28
78313;BME280;67568;47.438;21.408;2023-05-07T10:26:23;100679.34;;;21.86;51.76
78313;BME280;67568;47.438;21.408;2023-05-07T10:28:56;100682.38;;;21.96;51.40
78313;BME280;67568;47.438;21.408;2023-05-07T10:33:59;100685.94;;;22.13;50.41
78313;BME280;67568;47.438;21.408;2023-05-07T10:36:27;100678.22;;;22.10;50.20
78313;BME280;67568;47.438;21.408;2023-05-07T10:38:54;100682.84;;;22.37;49.81
78313;BME280;67568;47.438;21.408;2023-05-07T10:41:21;100673.78;;;22.51;50.12
78313;BME280;67568;47.438;21.408;2023-05-07T10:43:54;100679.50;;;22.78;49.71
78313;BME280;67568;47.438;21.408;2023-05-07T10:46:22;100677.00;;;22.73;48.98
78313;BME280;67568;47.438;21.408;2023-05-07T10:51:28;100659.75;;;23.01;48.05
78313;BME280;67568;47.438;21.408;2023-05-07T10:56:40;100678.06;;;23.10;48.24
78313;BME280;67568;47.438;21.408;2023-05-07T11:02:05;100663.81;;;22.34;49.57
78313;BME280;67568;47.438;21.408;2023-05-07T11:04:32;100652.69;;;22.45;49.95
78313;BME280;67568;47.438;21.408;2023-05-07T11:10:05;100662.00;;;22.45;47.68
78313;BME280;67568;47.438;21.408;2023-05-07T11:15:08;100653.16;;;22.47;48.65
78313;BME280;67568;47.438;21.408;2023-05-07T11:17:54;100650.13;;;22.36;49.66
78313;BME280;67568;47.438;21.408;2023-05-07T11:26:08;100659.66;;;22.28;49.10
78313;BME280;67568;47.438;21.408;2023-05-07T11:28:42;100664.53;;;22.31;49.67
78313;BME280;67568;47.438;21.408;2023-05-07T11:31:10;100651.25;;;22.32;49.94
78313;BME280;67568;47.438;21.408;2023-05-07T11:33:38;100652.44;;;22.31;49.13
78313;BME280;67568;47.438;21.408;2023-05-07T11:36:08;100654.38;;;22.27;49.50
78313;BME280;67568;47.438;21.408;2023-05-07T11:38:37;100644.28;;;22.06;50.07
78313;BME280;67568;47.438;21.408;2023-05-07T11:41:05;100644.38;;;21.90;49.73
78313;BME280;67568;47.438;21.408;2023-05-07T11:43:32;100644.31;;;21.87;50.33
78313;BME280;67568;47.438;21.408;2023-05-07T11:46:07;100638.94;;;21.82;49.53
78313;BME280;67568;47.438;21.408;2023-05-07T11:48:34;100644.59;;;21.82;50.63
78313;BME280;67568;47.438;21.408;2023-05-07T11:51:04;100644.31;;;21.67;51.48
78313;BME280;67568;47.438;21.408;2023-05-07T11:53:41;100644.97;;;21.61;51.44
78313;BME280;67568;47.438;21.408;2023-05-07T11:56:09;100643.13;;;21.49;51.47
78313;BME280;67568;47.438;21.408;2023-05-07T11:58:37;100638.28;;;21.49;51.77
78313;BME280;67568;47.438;21.408;2023-05-07T12:01:04;100630.47;;;21.43;51.85
78313;BME280;67568;47.438;21.408;2023-05-07T12:03:33;100634.94;;;21.44;52.26
78313;BME280;67568;47.438;21.408;2023-05-07T12:06:02;100628.78;;;21.38;52.32
78313;BME280;67568;47.438;21.408;2023-05-07T12:08:29;100623.72;;;21.47;51.99
78313;BME280;67568;47.438;21.408;2023-05-07T12:10:56;100615.13;;;21.60;52.02
78313;BME280;67568;47.438;21.408;2023-05-07T12:13:26;100617.94;;;21.60;51.53
78313;BME280;67568;47.438;21.408;2023-05-07T12:15:54;100626.56;;;21.67;52.13
78313;BME280;67568;47.438;21.408;2023-05-07T12:18:22;100618.03;;;21.63;51.65
78313;BME280;67568;47.438;21.408;2023-05-07T12:20:50;100617.19;;;21.63;52.44
78313;BME280;67568;47.438;21.408;2023-05-07T12:23:19;100613.63;;;21.66;51.37
78313;BME280;67568;47.438;21.408;2023-05-07T12:25:46;100604.97;;;21.74;51.75
78313;BME280;67568;47.438;21.408;2023-05-07T12:28:15;100591.28;;;21.76;51.64
78313;BME280;67568;47.438;21.408;2023-05-07T12:30:47;100604.75;;;21.83;51.06
78313;BME280;67568;47.438;21.408;2023-05-07T12:33:18;100598.78;;;21.88;51.20
78313;BME280;67568;47.438;21.408;2023-05-07T12:35:47;100593.47;;;21.83;51.59
78313;BME280;67568;47.438;21.408;2023-05-07T12:38:16;100592.63;;;21.83;51.81
78313;BME280;67568;47.438;21.408;2023-05-07T12:40:48;100597.16;;;21.87;51.99
78313;BME280;67568;47.438;21.408;2023-05-07T12:43:30;100595.59;;;21.90;51.67
78313;BME280;67568;47.438;21.408;2023-05-07T12:46:00;100600.34;;;21.86;51.00
78313;BME280;67568;47.438;21.408;2023-05-07T12:48:27;100594.50;;;21.75;50.98
78313;BME280;67568;47.438;21.408;2023-05-07T12:50:59;100594.63;;;21.63;51.16
78313;BME280;67568;47.438;21.408;2023-05-07T12:53:27;100604.59;;;21.76;51.58
78313;BME280;67568;47.438;21.408;2023-05-07T12:55:56;100598.72;;;21.85;51.42
78313;BME280;67568;47.438;21.408;2023-05-07T12:58:32;100593.84;;;22.05;50.60
78313;BME280;67568;47.438;21.408;2023-05-07T13:01:03;100593.56;;;22.10;52.28
78313;BME280;67568;47.438;21.408;2023-05-07T13:03:38;100596.22;;;22.22;53.00
78313;BME280;67568;47.438;21.408;2023-05-07T13:06:09;100592.13;;;22.42;52.45
78313;BME280;67568;47.438;21.408;2023-05-07T13:08:38;100587.38;;;22.47;53.04
78313;BME280;67568;47.438;21.408;2023-05-07T13:11:13;100587.84;;;22.49;53.03
78313;BME280;67568;47.438;21.408;2023-05-07T13:13:41;100589.13;;;22.09;54.82
78313;BME280;67568;47.438;21.408;2023-05-07T13:16:10;100592.66;;;22.06;54.27